createdAt,value
2023-04-28T00:01:29.065Z,0.68
2023-04-28T00:03:31.300Z,0.80
2023-04-28T00:05:33.017Z,0.75
2023-04-28T00:07:34.963Z,0.80
2023-04-28T00:09:36.577Z,0.80
2023-04-28T00:11:38.502Z,0.60
2023-04-28T00:13:40.122Z,0.60
2023-04-28T00:15:41.706Z,0.70
2023-04-28T00:17:43.444Z,0.75
2023-04-28T00:19:45.154Z,0.80
2023-04-28T00:21:47.196Z,0.80
2023-04-28T00:23:49.259Z,0.70
2023-04-28T00:25:52.255Z,0.70
2023-04-28T00:27:54.037Z,0.70
2023-04-28T00:29:55.759Z,0.70
2023-04-28T00:31:57.373Z,0.70
2023-04-28T00:33:58.993Z,0.70
2023-04-28T00:36:01.288Z,0.70
2023-04-28T00:38:03.093Z,0.70
2023-04-28T00:40:05.077Z,0.68
2023-04-28T00:42:06.659Z,0.70
2023-04-28T00:44:08.318Z,0.70
2023-04-28T00:46:19.093Z,0.60
2023-04-28T00:50:25.979Z,0.73
2023-04-28T00:52:28.560Z,0.75
2023-04-28T00:54:30.392Z,0.90
2023-04-28T00:56:32.052Z,0.68
2023-04-28T00:58:34.474Z,0.73
2023-04-28T01:00:36.196Z,0.88
2023-04-28T01:02:38.201Z,0.60
2023-04-28T01:04:40.122Z,0.73
2023-04-28T01:06:42.863Z,0.80
2023-04-28T01:08:51.147Z,0.60
2023-04-28T01:10:52.839Z,0.80
2023-04-28T01:12:54.394Z,0.60
2023-04-28T01:14:56.224Z,0.70
2023-04-28T01:16:57.975Z,0.73
2023-04-28T01:19:00.407Z,0.68
2023-04-28T01:21:04.300Z,0.60
2023-04-28T01:23:05.938Z,0.57
2023-04-28T01:25:07.840Z,0.63
2023-04-28T01:27:09.469Z,0.70
2023-04-28T01:29:11.321Z,0.55
2023-04-28T01:31:13.070Z,0.55
2023-04-28T01:33:14.608Z,0.45
2023-04-28T01:35:16.294Z,0.50
2023-04-28T01:37:17.818Z,0.60
2023-04-28T01:39:19.649Z,0.60
2023-04-28T01:41:22.445Z,0.60
2023-04-28T01:43:24.168Z,0.70
2023-04-28T01:45:25.822Z,0.70
2023-04-28T01:47:27.453Z,0.63
2023-04-28T01:49:29.154Z,0.70
2023-04-28T01:51:31.259Z,0.60
2023-04-28T01:53:32.867Z,0.65
2023-04-28T01:55:34.498Z,0.65
2023-04-28T01:57:36.037Z,0.50
2023-04-28T01:59:37.632Z,0.70
2023-04-28T02:01:39.467Z,0.70
2023-04-28T02:03:41.224Z,0.60
2023-04-28T02:05:43.045Z,0.70
2023-04-28T02:07:45.337Z,0.60
2023-04-28T02:09:47.112Z,0.70
2023-04-28T02:11:48.921Z,0.65
2023-04-28T02:13:50.958Z,0.70
2023-04-28T02:15:52.643Z,0.60
2023-04-28T02:17:54.222Z,0.70
2023-04-28T02:19:56.784Z,0.60
2023-04-28T02:21:58.367Z,0.50
2023-04-28T02:24:00.298Z,0.80
2023-04-28T02:26:03.576Z,0.77
2023-04-28T02:28:05.177Z,0.50
2023-04-28T02:30:07.625Z,0.70
2023-04-28T02:32:09.175Z,0.50
2023-04-28T02:34:11.240Z,0.60
2023-04-28T02:36:13.233Z,0.52
2023-04-28T02:38:14.804Z,0.68
2023-04-28T02:40:16.506Z,0.65
2023-04-28T02:42:18.208Z,0.50
2023-04-28T02:44:20.458Z,0.60
2023-04-28T02:46:22.045Z,0.50
2023-04-28T02:48:25.049Z,0.50
2023-04-28T02:50:26.856Z,0.50
2023-04-28T02:52:28.490Z,0.60
2023-04-28T02:54:31.134Z,0.50
2023-04-28T02:56:33.107Z,0.50
2023-04-28T02:58:34.625Z,0.50
2023-04-28T03:00:36.334Z,0.50
2023-04-28T03:02:38.084Z,0.50
2023-04-28T03:04:39.832Z,0.60
2023-04-28T03:06:45.114Z,0.50
2023-04-28T03:08:47.155Z,0.43
2023-04-28T03:10:48.723Z,0.50
2023-04-28T03:12:53.492Z,0.40
2023-04-28T03:14:55.133Z,0.60
2023-04-28T03:16:57.927Z,0.45
2023-04-28T03:18:59.582Z,0.50
2023-04-28T03:21:01.650Z,0.43
2023-04-28T03:23:04.038Z,0.47
2023-04-28T03:25:06.095Z,0.40
2023-04-28T03:27:07.713Z,0.35
2023-04-28T03:29:09.419Z,0.50
2023-04-28T03:31:11.228Z,0.30
2023-04-28T03:33:12.802Z,0.40
2023-04-28T03:35:14.433Z,0.60
2023-04-28T03:37:16.289Z,0.40
2023-04-28T03:39:18.619Z,0.40
2023-04-28T03:41:20.284Z,0.40
2023-04-28T03:43:22.165Z,0.50
2023-04-28T03:45:24.973Z,0.60
2023-04-28T03:47:26.841Z,0.75
2023-04-28T03:49:28.534Z,0.40
2023-04-28T03:51:30.432Z,0.50
2023-04-28T03:53:32.046Z,0.50
2023-04-28T03:55:33.969Z,0.50
2023-04-28T03:57:36.112Z,0.40
2023-04-28T03:59:38.012Z,0.60
2023-04-28T04:01:39.543Z,0.40
2023-04-28T04:03:41.278Z,0.40
2023-04-28T04:05:43.414Z,0.40
2023-04-28T04:07:45.338Z,0.40
2023-04-28T04:09:46.979Z,0.47
2023-04-28T04:11:48.500Z,0.40
2023-04-28T04:13:50.050Z,0.32
2023-04-28T04:15:52.738Z,0.38
2023-04-28T04:17:54.440Z,0.45
2023-04-28T04:19:56.104Z,0.50
2023-04-28T04:21:57.739Z,0.40
2023-04-28T04:23:59.326Z,0.40
2023-04-28T04:26:01.021Z,0.40
2023-04-28T04:28:02.651Z,0.40
2023-04-28T04:30:05.146Z,0.35
2023-04-28T04:32:06.692Z,0.40
2023-04-28T04:34:08.274Z,0.40
2023-04-28T04:36:09.813Z,0.32
2023-04-28T04:38:11.327Z,0.47
2023-04-28T04:40:13.298Z,0.30
2023-04-28T04:42:25.022Z,0.30
2023-04-28T04:44:27.483Z,0.40
2023-04-28T04:46:29.630Z,0.30
2023-04-28T04:48:31.251Z,0.40
2023-04-28T04:50:32.922Z,0.40
2023-04-28T04:52:34.521Z,0.40
2023-04-28T04:54:36.064Z,0.40
2023-04-28T04:56:38.341Z,0.30
2023-04-28T04:58:44.360Z,0.40
2023-04-28T05:00:46.011Z,0.40
2023-04-28T05:02:47.763Z,0.50
2023-04-28T05:04:49.978Z,0.38
2023-04-28T05:06:52.788Z,0.45
2023-04-28T05:08:56.542Z,0.30
2023-04-28T05:10:58.171Z,0.30
2023-04-28T05:12:59.738Z,0.35
2023-04-28T05:15:01.411Z,0.40
2023-04-28T05:17:03.076Z,0.35
2023-04-28T05:19:04.896Z,0.30
2023-04-28T05:21:06.705Z,0.40
2023-04-28T05:23:08.279Z,0.30
2023-04-28T05:25:10.013Z,0.40
2023-04-28T05:27:11.731Z,0.38
2023-04-28T05:29:13.303Z,0.40
2023-04-28T05:31:14.879Z,0.40
2023-04-28T05:33:16.723Z,0.40
2023-04-28T05:35:18.422Z,0.40
2023-04-28T05:37:20.398Z,0.30
2023-04-28T05:39:22.105Z,0.30
2023-04-28T05:41:26.430Z,0.30
2023-04-28T05:43:28.199Z,0.30
2023-04-28T05:45:30.141Z,0.30
2023-04-28T05:47:32.000Z,0.50
2023-04-28T05:49:33.626Z,0.47
2023-04-28T05:51:35.356Z,0.50
2023-04-28T05:53:36.968Z,0.30
2023-04-28T05:55:38.846Z,0.30
2023-04-28T05:57:49.675Z,0.40
2023-04-28T05:59:54.443Z,0.40
2023-04-28T06:01:56.222Z,0.30
2023-04-28T06:03:58.944Z,0.50
2023-04-28T06:06:00.989Z,0.38
2023-04-28T06:08:03.577Z,0.50
2023-04-28T06:10:06.338Z,0.50
2023-04-28T06:12:08.363Z,0.40
2023-04-28T06:14:09.994Z,0.30
2023-04-28T06:16:11.894Z,0.32
2023-04-28T06:18:13.469Z,0.40
2023-04-28T06:20:15.245Z,0.40
2023-04-28T06:22:16.977Z,0.40
2023-04-28T06:24:21.319Z,0.47
2023-04-28T06:26:23.307Z,0.20
2023-04-28T06:28:25.225Z,0.35
2023-04-28T06:30:26.785Z,0.30
2023-04-28T06:32:28.934Z,0.40
2023-04-28T06:34:31.546Z,0.30
2023-04-28T06:36:33.273Z,0.50
2023-04-28T06:38:34.909Z,0.47
2023-04-28T06:40:36.544Z,0.43
2023-04-28T06:42:38.157Z,0.50
2023-04-28T06:44:39.994Z,0.40
2023-04-28T06:46:42.009Z,0.52
2023-04-28T06:48:43.685Z,0.75
2023-04-28T06:50:45.250Z,0.50
2023-04-28T06:52:46.814Z,0.35
2023-04-28T06:54:52.772Z,0.40
2023-04-28T06:56:54.407Z,0.40
2023-04-28T06:58:57.117Z,0.40
2023-04-28T07:00:58.780Z,0.47
2023-04-28T07:03:00.982Z,0.50
2023-04-28T07:05:03.701Z,0.50
2023-04-28T07:07:09.880Z,0.40
2023-04-28T07:09:11.449Z,0.60
2023-04-28T07:11:16.603Z,0.60
2023-04-28T07:13:18.189Z,0.70
2023-04-28T07:15:19.823Z,0.52
2023-04-28T07:17:21.429Z,0.75
2023-04-28T07:19:23.081Z,0.60
2023-04-28T07:21:24.838Z,1.20
2023-04-28T07:23:26.445Z,1.38
2023-04-28T07:25:28.031Z,1.02
2023-04-28T07:27:29.586Z,0.80
2023-04-28T07:29:34.088Z,0.93
2023-04-28T07:31:35.669Z,1.10
2023-04-28T07:33:37.248Z,0.98
2023-04-28T07:35:38.949Z,1.00
2023-04-28T07:37:40.534Z,1.00
2023-04-28T07:39:42.156Z,1.00
2023-04-28T07:41:43.792Z,1.20
2023-04-28T07:43:45.645Z,1.10
2023-04-28T07:45:49.673Z,1.00
2023-04-28T07:47:51.442Z,1.13
2023-04-28T07:49:53.128Z,1.10
2023-04-28T07:51:55.805Z,1.30
2023-04-28T07:53:57.477Z,1.15
2023-04-28T07:55:59.408Z,1.00
2023-04-28T07:58:01.663Z,1.05
2023-04-28T08:00:03.740Z,1.13
2023-04-28T08:02:07.035Z,1.35
2023-04-28T08:04:09.003Z,1.42
2023-04-28T08:06:10.812Z,1.15
2023-04-28T08:08:12.380Z,1.50
2023-04-28T08:10:14.025Z,1.90
2023-04-28T08:12:15.929Z,4.10
2023-04-28T08:14:17.854Z,2.83
2023-04-28T08:16:19.857Z,2.30
2023-04-28T08:18:21.943Z,2.13
2023-04-28T08:20:26.605Z,1.45
2023-04-28T08:22:28.370Z,1.42
2023-04-28T08:24:30.286Z,2.10
2023-04-28T08:26:32.253Z,2.42
2023-04-28T08:28:34.103Z,2.92
2023-04-28T08:30:35.853Z,1.75
2023-04-28T08:32:41.120Z,1.40
2023-04-28T08:34:42.684Z,1.27
2023-04-28T08:36:44.262Z,1.80
2023-04-28T08:38:46.092Z,2.92
2023-04-28T08:40:47.705Z,1.80
2023-04-28T08:42:49.924Z,2.40
2023-04-28T08:44:51.967Z,2.13
2023-04-28T08:46:56.988Z,2.50
2023-04-28T08:49:04.332Z,2.65
2023-04-28T08:51:07.123Z,2.22
2023-04-28T08:53:08.839Z,2.38
2023-04-28T08:55:12.638Z,2.33
2023-04-28T08:57:17.571Z,2.00
2023-04-28T08:59:19.691Z,1.70
2023-04-28T09:01:21.310Z,1.40
2023-04-28T09:03:23.216Z,1.40
2023-04-28T09:05:25.783Z,1.42
2023-04-28T09:07:27.999Z,1.48
2023-04-28T09:09:33.564Z,1.50
2023-04-28T09:12:04.019Z,1.40
2023-04-28T09:14:24.055Z,1.30
2023-04-28T09:16:39.721Z,1.00
2023-04-28T09:18:55.231Z,0.93
2023-04-28T09:21:07.712Z,1.15
2023-04-28T09:23:14.659Z,1.00
2023-04-28T09:25:17.062Z,1.10
2023-04-28T09:27:26.834Z,1.02
2023-04-28T09:29:32.028Z,1.10
2023-04-28T09:31:40.440Z,1.17
2023-04-28T09:33:57.123Z,1.00
2023-04-28T09:35:59.235Z,1.00
2023-04-28T09:38:01.528Z,1.00
2023-04-28T09:40:06.152Z,0.90
2023-04-28T09:42:07.775Z,1.00
2023-04-28T09:44:16.064Z,1.00
2023-04-28T09:46:28.726Z,1.20
2023-04-28T09:48:32.752Z,0.98
2023-04-28T09:50:40.089Z,0.90
2023-04-28T09:52:44.241Z,0.85
2023-04-28T09:54:46.605Z,0.88
2023-04-28T09:56:51.648Z,1.20
2023-04-28T09:58:54.081Z,1.00
2023-04-28T10:01:00.289Z,0.90
2023-04-28T10:03:02.611Z,1.63
2023-04-28T10:05:05.572Z,1.30
2023-04-28T10:07:08.920Z,1.65
2023-04-28T10:09:12.428Z,1.00
2023-04-28T10:11:17.270Z,1.02
2023-04-28T10:13:22.844Z,1.13
2023-04-28T10:15:24.566Z,1.05
2023-04-28T10:17:27.465Z,1.20
2023-04-28T10:19:29.182Z,1.20
2023-04-28T10:21:35.859Z,1.55
2023-04-28T10:24:00.218Z,1.13
2023-04-28T10:26:03.127Z,1.20
2023-04-28T10:28:06.684Z,1.00
2023-04-28T10:32:26.654Z,1.10
2023-04-28T10:34:30.829Z,0.93
2023-04-28T10:36:55.033Z,1.00
2023-04-28T10:39:11.062Z,0.85
2023-04-28T10:41:32.037Z,0.80
2023-04-28T10:43:39.498Z,1.10
2023-04-28T10:45:56.778Z,1.10
2023-04-28T10:48:04.337Z,1.00
2023-04-28T10:50:08.123Z,1.13
2023-04-28T10:52:35.381Z,1.10
2023-04-28T10:54:37.292Z,1.00
2023-04-28T10:56:39.970Z,1.20
2023-04-28T10:58:46.361Z,1.00
2023-04-28T11:00:48.211Z,0.98
2023-04-28T11:02:49.971Z,1.00
2023-04-28T11:05:21.757Z,1.10
2023-04-28T11:07:23.414Z,1.55
2023-04-28T11:09:49.636Z,1.58
2023-04-28T11:12:00.308Z,2.33
2023-04-28T11:14:18.134Z,2.15
2023-04-28T11:16:24.893Z,1.80
2023-04-28T11:18:27.727Z,1.60
2023-04-28T11:20:29.871Z,1.25
2023-04-28T11:22:31.567Z,1.20
2023-04-28T11:24:33.358Z,1.00
2023-04-28T11:26:37.471Z,1.27
2023-04-28T11:28:48.726Z,1.20
2023-04-28T11:30:54.365Z,2.20
2023-04-28T11:32:56.663Z,2.70
2023-04-28T11:34:58.351Z,3.10
2023-04-28T11:37:00.049Z,4.57
2023-04-28T11:39:07.563Z,4.80
2023-04-28T11:41:09.253Z,3.40
2023-04-28T11:43:10.779Z,5.18
2023-04-28T11:45:12.893Z,5.30
2023-04-28T11:47:14.621Z,8.63
2023-04-28T11:49:16.549Z,8.35
2023-04-28T11:51:34.815Z,5.40
2023-04-28T11:53:45.838Z,5.30
2023-04-28T11:55:47.394Z,5.20
2023-04-28T11:57:49.011Z,4.15
2023-04-28T11:59:51.205Z,3.65
2023-04-28T12:01:57.449Z,2.30
2023-04-28T12:03:59.257Z,2.72
2023-04-28T12:06:01.147Z,1.95
2023-04-28T12:08:02.764Z,1.90
2023-04-28T12:10:16.659Z,1.48
2023-04-28T12:12:45.215Z,1.45
2023-04-28T12:15:01.404Z,1.55
2023-04-28T12:17:04.056Z,1.63
2023-04-28T12:19:09.945Z,1.20
2023-04-28T12:21:21.271Z,1.52
2023-04-28T12:23:34.701Z,1.10
2023-04-28T12:25:46.288Z,0.80
2023-04-28T12:28:07.551Z,1.83
2023-04-28T12:30:25.032Z,1.10
2023-04-28T12:32:40.304Z,0.90
2023-04-28T12:34:43.282Z,0.80
2023-04-28T12:36:48.243Z,0.70
2023-04-28T12:38:50.139Z,0.68
2023-04-28T12:40:52.217Z,2.28
2023-04-28T12:42:54.094Z,2.58
2023-04-28T12:44:55.658Z,1.50
2023-04-28T12:46:57.478Z,1.48
2023-04-28T12:48:59.165Z,4.13
2023-04-28T12:51:03.163Z,3.25
2023-04-28T12:53:05.060Z,2.55
2023-04-28T12:55:07.300Z,1.95
2023-04-28T12:57:09.050Z,1.67
2023-04-28T12:59:11.102Z,1.55
2023-04-28T13:01:13.399Z,1.15
2023-04-28T13:03:15.935Z,1.70
2023-04-28T13:05:19.355Z,3.03
2023-04-28T13:07:21.942Z,2.20
2023-04-28T13:09:24.979Z,2.05
2023-04-28T13:11:27.995Z,5.10
2023-04-28T13:13:29.718Z,2.95
2023-04-28T13:15:31.806Z,1.70
2023-04-28T13:17:34.798Z,1.27
2023-04-28T13:19:36.517Z,1.20
2023-04-28T13:21:39.366Z,1.98
2023-04-28T13:23:44.050Z,1.70
2023-04-28T13:25:45.703Z,2.03
2023-04-28T13:27:47.422Z,4.40
2023-04-28T13:29:48.927Z,3.53
2023-04-28T13:31:50.982Z,2.08
2023-04-28T13:33:52.732Z,2.30
2023-04-28T13:35:54.385Z,5.82
2023-04-28T13:38:01.699Z,4.43
2023-04-28T13:40:04.557Z,3.40
2023-04-28T13:42:07.212Z,1.70
2023-04-28T13:44:09.527Z,1.95
2023-04-28T13:46:12.145Z,4.03
2023-04-28T13:48:13.910Z,2.70
2023-04-28T13:50:15.892Z,2.42
2023-04-28T13:52:17.630Z,1.38
2023-04-28T13:54:19.195Z,1.33
2023-04-28T13:56:21.263Z,1.00
2023-04-28T13:58:27.251Z,2.75
2023-04-28T14:00:29.607Z,4.20
2023-04-28T14:02:32.087Z,3.83
2023-04-28T14:04:34.033Z,2.85
2023-04-28T14:06:35.992Z,3.42
2023-04-28T14:08:37.598Z,3.08
2023-04-28T14:10:39.253Z,1.60
2023-04-28T14:12:40.862Z,1.10
2023-04-28T14:14:42.806Z,1.35
2023-04-28T14:16:45.354Z,7.38
2023-04-28T14:18:47.034Z,8.13
2023-04-28T14:20:49.137Z,6.80
2023-04-28T14:22:50.896Z,3.22
2023-04-28T14:24:53.368Z,3.25
2023-04-28T14:26:55.020Z,2.45
2023-04-28T14:28:56.601Z,1.20
2023-04-28T14:30:58.305Z,1.67
2023-04-28T14:33:00.103Z,2.28
2023-04-28T14:35:04.977Z,4.43
2023-04-28T14:37:06.574Z,2.03
2023-04-28T14:39:08.115Z,1.60
2023-04-28T14:41:09.889Z,1.55
2023-04-28T14:43:11.538Z,2.05
2023-04-28T14:45:16.360Z,3.10
2023-04-28T14:47:17.953Z,2.40
2023-04-28T14:49:19.623Z,1.98
2023-04-28T14:51:21.747Z,1.80
2023-04-28T14:53:23.588Z,1.75
2023-04-28T14:55:25.166Z,2.40
2023-04-28T14:57:27.484Z,1.10
2023-04-28T14:59:29.016Z,0.73
2023-04-28T15:01:31.048Z,0.95
2023-04-28T15:03:33.246Z,0.80
2023-04-28T15:05:35.156Z,0.98
2023-04-28T15:07:37.013Z,0.50
2023-04-28T15:09:38.879Z,1.10
2023-04-28T15:11:40.476Z,1.45
2023-04-28T15:13:43.095Z,1.30
2023-04-28T15:15:44.788Z,0.90
2023-04-28T15:17:46.700Z,0.88
2023-04-28T15:19:48.346Z,0.65
2023-04-28T15:21:50.065Z,0.80
2023-04-28T15:23:51.609Z,0.80
2023-04-28T15:25:54.253Z,0.50
2023-04-28T15:27:55.989Z,0.52
2023-04-28T15:29:57.815Z,0.43
2023-04-28T15:31:59.753Z,0.40
2023-04-28T15:34:01.727Z,0.60
2023-04-28T15:36:03.312Z,0.77
2023-04-28T15:38:05.171Z,0.60
2023-04-28T15:40:09.224Z,0.70
2023-04-28T15:42:10.772Z,0.75
2023-04-28T15:44:12.284Z,0.65
2023-04-28T15:46:17.309Z,0.77
2023-04-28T15:48:19.131Z,0.90
2023-04-28T15:50:21.083Z,0.98
2023-04-28T15:52:22.888Z,0.70
2023-04-28T15:54:24.453Z,0.50
2023-04-28T15:56:26.698Z,0.90
2023-04-28T15:58:28.578Z,0.60
2023-04-28T16:00:30.501Z,1.33
2023-04-28T16:02:32.495Z,1.25
2023-04-28T16:04:34.431Z,2.35
2023-04-28T16:06:36.505Z,1.70
2023-04-28T16:08:38.265Z,1.08
2023-04-28T16:10:43.017Z,1.27
2023-04-28T16:12:44.788Z,1.58
2023-04-28T16:14:53.176Z,0.93
2023-04-28T16:16:55.679Z,0.80
2023-04-28T16:18:57.603Z,0.70
2023-04-28T16:20:59.762Z,0.50
2023-04-28T16:23:01.686Z,0.40
2023-04-28T16:25:06.468Z,0.80
2023-04-28T16:27:08.516Z,1.10
2023-04-28T16:29:11.709Z,0.95
2023-04-28T16:31:14.678Z,0.63
2023-04-28T16:33:16.596Z,1.00
2023-04-28T16:35:18.234Z,1.30
2023-04-28T16:37:19.800Z,0.95
2023-04-28T16:39:24.431Z,0.90
2023-04-28T16:41:26.240Z,0.90
2023-04-28T16:43:27.951Z,0.70
2023-04-28T16:45:29.613Z,0.95
2023-04-28T16:47:31.254Z,0.75
2023-04-28T16:49:32.871Z,0.90
2023-04-28T16:51:34.715Z,0.90
2023-04-28T16:53:36.572Z,0.50
2023-04-28T16:55:38.272Z,0.55
2023-04-28T16:57:39.990Z,1.20
2023-04-28T16:59:41.662Z,1.30
2023-04-28T17:01:43.308Z,1.30
2023-04-28T17:03:45.839Z,1.38
2023-04-28T17:05:47.818Z,0.90
2023-04-28T17:07:49.958Z,0.70
2023-04-28T17:09:54.367Z,0.70
2023-04-28T17:11:56.207Z,0.90
2023-04-28T17:13:58.101Z,0.70
2023-04-28T17:16:00.198Z,0.70
2023-04-28T17:18:02.183Z,1.00
2023-04-28T17:20:04.809Z,1.05
2023-04-28T17:22:06.469Z,0.98
2023-04-28T17:24:10.977Z,0.98
2023-04-28T17:26:12.768Z,1.00
2023-04-28T17:28:14.345Z,1.30
2023-04-28T17:30:16.058Z,1.10
2023-04-28T17:32:18.198Z,1.42
2023-04-28T17:34:20.116Z,1.38
2023-04-28T17:36:23.210Z,1.10
2023-04-28T17:38:24.828Z,1.10
2023-04-28T17:40:26.916Z,1.58
2023-04-28T17:42:30.881Z,1.00
2023-04-28T17:44:32.745Z,1.10
2023-04-28T17:46:34.700Z,1.05
2023-04-28T17:48:36.781Z,1.20
2023-04-28T17:50:39.089Z,1.73
2023-04-28T17:52:43.438Z,1.50
2023-04-28T17:54:45.707Z,1.05
2023-04-28T17:56:47.392Z,0.90
2023-04-28T17:58:49.189Z,0.93
2023-04-28T18:01:02.083Z,0.93
2023-04-28T18:03:03.731Z,0.90
2023-04-28T18:05:06.182Z,0.80
2023-04-28T18:07:08.045Z,1.15
2023-04-28T18:09:09.602Z,0.82
2023-04-28T18:11:12.031Z,0.80
2023-04-28T18:13:13.711Z,0.80
2023-04-28T18:15:15.470Z,0.80
2023-04-28T18:17:20.187Z,0.70
2023-04-28T18:19:22.255Z,0.80
2023-04-28T18:21:24.214Z,0.90
2023-04-28T18:23:26.605Z,0.95
2023-04-28T18:25:28.348Z,0.90
2023-04-28T18:27:29.896Z,0.82
2023-04-28T18:29:31.480Z,0.90
2023-04-28T18:31:33.596Z,0.68
2023-04-28T18:33:35.317Z,0.70
2023-04-28T18:35:37.144Z,0.70
2023-04-28T18:37:38.882Z,0.70
2023-04-28T18:39:40.816Z,0.65
2023-04-28T18:41:42.375Z,0.82
2023-04-28T18:43:44.432Z,0.80
2023-04-28T18:45:46.473Z,0.73
2023-04-28T18:47:48.810Z,0.80
2023-04-28T18:49:51.515Z,0.70
2023-04-28T18:51:53.307Z,0.80
2023-04-28T18:53:54.886Z,0.77
2023-04-28T18:55:58.069Z,0.70
2023-04-28T18:58:01.886Z,0.70
2023-04-28T19:00:05.086Z,0.75
2023-04-28T19:02:06.990Z,0.90
2023-04-28T19:04:09.360Z,0.98
2023-04-28T19:06:12.029Z,1.00
2023-04-28T19:08:13.714Z,0.95
2023-04-28T19:10:15.749Z,1.10
2023-04-28T19:12:17.836Z,1.20
2023-04-28T19:14:19.520Z,1.40
2023-04-28T19:16:21.436Z,1.15
2023-04-28T19:18:23.123Z,1.50
2023-04-28T19:20:24.903Z,1.63
2023-04-28T19:22:37.110Z,1.30
2023-04-28T19:24:38.738Z,1.55
2023-04-28T19:26:40.349Z,1.65
2023-04-28T19:28:42.891Z,1.60
2023-04-28T19:30:44.464Z,1.67
2023-04-28T19:32:46.112Z,1.73
2023-04-28T19:34:48.194Z,1.67
2023-04-28T19:36:49.710Z,1.73
2023-04-28T19:38:51.446Z,1.73
2023-04-28T19:41:02.961Z,1.70
2023-04-28T19:43:04.586Z,1.85
2023-04-28T19:45:07.294Z,1.80
2023-04-28T19:47:08.927Z,1.83
2023-04-28T19:49:11.056Z,1.77
2023-04-28T19:51:14.362Z,2.30
2023-04-28T19:53:15.936Z,2.40
2023-04-28T19:55:20.063Z,2.22
2023-04-28T19:57:21.884Z,2.20
2023-04-28T19:59:23.558Z,2.30
2023-04-28T20:01:25.150Z,2.75
2023-04-28T20:03:27.293Z,3.25
2023-04-28T20:05:29.266Z,2.55
2023-04-28T20:07:30.977Z,2.65
2023-04-28T20:09:35.995Z,3.22
2023-04-28T20:11:37.694Z,7.70
2023-04-28T20:13:39.328Z,9.27
2023-04-28T20:15:40.934Z,8.50
2023-04-28T20:17:42.845Z,7.55
2023-04-28T20:19:44.568Z,7.43
2023-04-28T20:21:46.122Z,6.10
2023-04-28T20:23:47.857Z,5.38
2023-04-28T20:25:49.771Z,5.13
2023-04-28T20:27:51.517Z,4.60
2023-04-28T20:29:53.833Z,5.22
2023-04-28T20:31:56.090Z,4.38
2023-04-28T20:33:57.918Z,3.38
2023-04-28T20:35:59.504Z,3.90
2023-04-28T20:38:02.100Z,3.83
2023-04-28T20:40:04.995Z,3.28
2023-04-28T20:42:07.197Z,3.20
2023-04-28T20:44:08.842Z,3.22
2023-04-28T20:46:10.934Z,3.72
2023-04-28T20:48:12.953Z,3.20
2023-04-28T20:50:14.979Z,3.28
2023-04-28T20:52:17.143Z,2.88
2023-04-28T20:54:18.744Z,3.33
2023-04-28T20:56:20.357Z,2.90
2023-04-28T20:58:22.161Z,2.70
2023-04-28T21:00:23.981Z,3.10
2023-04-28T21:02:25.908Z,2.70
2023-04-28T21:04:28.519Z,3.38
2023-04-28T21:06:30.342Z,2.65
2023-04-28T21:08:32.132Z,2.55
2023-04-28T21:10:33.704Z,2.55
2023-04-28T21:12:36.221Z,2.60
2023-04-28T21:14:37.813Z,2.08
2023-04-28T21:16:39.440Z,2.17
2023-04-28T21:18:45.286Z,2.25
2023-04-28T21:20:47.316Z,2.70
2023-04-28T21:22:49.072Z,2.10
2023-04-28T21:24:52.659Z,1.95
2023-04-28T21:26:54.584Z,2.13
2023-04-28T21:28:56.512Z,2.53
2023-04-28T21:30:58.363Z,2.00
2023-04-28T21:33:00.780Z,2.00
2023-04-28T21:35:02.478Z,1.80
2023-04-28T21:37:04.324Z,1.90
2023-04-28T21:39:06.023Z,1.80
2023-04-28T21:41:08.833Z,2.05
2023-04-28T21:43:10.467Z,1.90
2023-04-28T21:45:12.082Z,1.70
2023-04-28T21:47:16.695Z,1.80
2023-04-28T21:49:18.850Z,1.63
2023-04-28T21:51:20.558Z,1.45
2023-04-28T21:53:22.536Z,1.60
2023-04-28T21:55:24.396Z,1.40
2023-04-28T21:57:26.098Z,1.60
2023-04-28T21:59:28.534Z,1.20
2023-04-28T22:01:30.714Z,1.40
2023-04-28T22:03:34.886Z,1.40
2023-04-28T22:05:37.127Z,1.20
2023-04-28T22:07:38.789Z,1.48
2023-04-28T22:09:40.371Z,1.10
2023-04-28T22:11:42.685Z,1.30
2023-04-28T22:13:44.337Z,1.20
2023-04-28T22:15:46.498Z,1.10
2023-04-28T22:17:48.115Z,1.30
2023-04-28T22:19:49.850Z,1.25
2023-04-28T22:21:51.786Z,1.05
2023-04-28T22:23:53.578Z,1.13
2023-04-28T22:25:58.983Z,1.20
2023-04-28T22:28:00.580Z,1.00
2023-04-28T22:30:02.414Z,1.35
2023-04-28T22:32:04.610Z,1.00
2023-04-28T22:34:09.776Z,1.10
2023-04-28T22:36:12.020Z,1.17
2023-04-28T22:38:13.922Z,1.10
2023-04-28T22:40:15.918Z,0.95
2023-04-28T22:42:17.520Z,1.02
2023-04-28T22:44:19.280Z,1.00
2023-04-28T22:46:23.018Z,0.85
2023-04-28T22:48:24.579Z,1.00
2023-04-28T22:50:28.657Z,1.10
2023-04-28T22:52:30.258Z,1.02
2023-04-28T22:54:31.953Z,0.95
2023-04-28T22:56:33.526Z,0.98
2023-04-28T22:58:35.124Z,0.95
2023-04-28T23:00:37.106Z,0.75
2023-04-28T23:02:38.806Z,0.80
2023-04-28T23:04:41.142Z,0.80
2023-04-28T23:06:42.910Z,1.00
2023-04-28T23:08:44.486Z,0.80
2023-04-28T23:10:46.500Z,0.75
2023-04-28T23:12:48.025Z,0.80
2023-04-28T23:14:49.609Z,0.80
2023-04-28T23:16:51.151Z,1.00
2023-04-28T23:18:52.945Z,0.88
2023-04-28T23:20:54.596Z,0.90
2023-04-28T23:22:58.225Z,0.80
2023-04-28T23:24:59.878Z,0.70
2023-04-28T23:27:01.548Z,0.90
2023-04-28T23:29:03.138Z,0.80
2023-04-28T23:31:04.964Z,0.70
2023-04-28T23:33:06.817Z,0.77
2023-04-28T23:35:10.649Z,0.70
2023-04-28T23:37:12.444Z,0.90
2023-04-28T23:39:14.045Z,0.70
2023-04-28T23:41:16.064Z,0.70
2023-04-28T23:43:18.002Z,0.88
2023-04-28T23:45:22.719Z,0.77
2023-04-28T23:47:24.706Z,0.60
2023-04-28T23:49:26.312Z,0.70
2023-04-28T23:51:28.204Z,0.70
2023-04-28T23:53:29.873Z,0.90
2023-04-28T23:55:31.550Z,0.70
2023-04-28T23:57:33.114Z,0.70
2023-04-28T23:59:34.690Z,0.80
